Time;durP1;ratioP1;P1;durP2;ratioP2;P2;SDS_P1;SDS_P2;PMS_P1;PMS_P2;Temp;Humidity;BMP_temperature;BMP_pressure;BME280_temperature;BME280_humidity;BME280_pressure;Samples;Min_cycle;Max_cycle;Signal;HPM_P1;HPM_P2
2021/09/28 00:00:27;;;;;;;11.68;8.05;;;23.20;72.60;;;;;;5179506;28;20555;-47
2021/09/28 00:03:00;;;;;;;9.30;7.63;;;23.20;72.70;;;;;;5180074;28;20045;-45
2021/09/28 00:05:33;;;;;;;13.35;8.32;;;23.20;72.70;;;;;;5179170;28;20053;-46
2021/09/28 00:08:06;;;;;;;11.15;8.60;;;23.20;72.60;;;;;;5182792;28;20041;-46
2021/09/28 00:10:38;;;;;;;9.85;7.18;;;23.20;72.50;;;;;;5179903;28;20045;-43
2021/09/28 00:13:12;;;;;;;11.32;7.90;;;23.20;72.50;;;;;;5178822;28;20049;-44
2021/09/28 00:15:45;;;;;;;9.07;7.28;;;23.20;72.50;;;;;;5183225;28;20048;-44
2021/09/28 00:18:17;;;;;;;11.77;8.43;;;23.20;72.60;;;;;;5180817;28;20064;-44
2021/09/28 00:20:49;;;;;;;11.05;8.35;;;23.20;72.50;;;;;;5181375;28;20046;-49
2021/09/28 00:23:22;;;;;;;10.55;7.75;;;23.20;72.50;;;;;;5183500;28;20052;-47
2021/09/28 00:25:54;;;;;;;13.43;8.25;;;23.20;72.40;;;;;;5165829;28;20053;-49
2021/09/28 00:28:28;;;;;;;8.95;7.22;;;23.10;72.40;;;;;;5184735;28;20386;-43
2021/09/28 00:31:00;;;;;;;;;;;23.20;72.40;;;;;;5182517;28;20041;-53
2021/09/28 00:33:33;;;;;;;10.68;8.07;;;23.10;72.40;;;;;;5162129;28;19929;-46
2021/09/28 00:36:05;;;;;;;8.93;7.50;;;23.10;72.40;;;;;;5182637;28;20042;-45
2021/09/28 00:38:37;;;;;;;10.30;8.25;;;23.10;72.40;;;;;;5179395;28;20048;-47
2021/09/28 00:41:10;;;;;;;11.87;8.07;;;23.10;72.40;;;;;;5165648;28;20080;-48
2021/09/28 00:43:53;;;;;;;11.57;7.88;;;23.10;72.30;;;;;;5184095;28;20417;-46
2021/09/28 00:46:26;;;;;;;10.55;8.77;;;23.10;72.30;;;;;;5185849;28;20053;-44
2021/09/28 00:49:02;;;;;;;9.57;8.27;;;23.10;72.30;;;;;;5188505;28;20415;-44
2021/09/28 00:51:35;;;;;;;12.55;8.10;;;23.10;72.30;;;;;;5181622;28;20227;-52
2021/09/28 00:54:07;;;;;;;10.60;8.33;;;23.10;72.30;;;;;;5188062;28;20516;-45
2021/09/28 00:56:43;;;;;;;10.95;8.55;;;23.10;72.30;;;;;;5186956;28;20064;-49
2021/09/28 00:59:15;;;;;;;15.02;8.00;;;23.10;72.20;;;;;;5184658;28;20458;-52
2021/09/28 01:01:48;;;;;;;11.50;8.65;;;23.10;72.20;;;;;;5160649;28;20053;-46
2021/09/28 01:04:21;;;;;;;10.37;8.07;;;23.10;72.20;;;;;;5183386;28;20505;-49
2021/09/28 01:06:54;;;;;;;9.00;7.43;;;23.10;72.10;;;;;;5187853;28;20052;-45
2021/09/28 01:09:27;;;;;;;10.95;7.93;;;23.10;72.10;;;;;;5173024;28;20049;-45
2021/09/28 01:12:00;;;;;;;10.65;7.53;;;23.10;72.10;;;;;;5184094;28;20057;-51
2021/09/28 01:14:32;;;;;;;11.25;7.60;;;23.10;72.10;;;;;;5186165;28;20405;-47
2021/09/28 01:17:17;;;;;;;12.45;8.50;;;23.00;72.00;;;;;;5165762;28;20544;-45
2021/09/28 01:19:49;;;;;;;15.65;7.45;;;23.00;71.80;;;;;;5184781;28;20529;-50
2021/09/28 01:22:22;;;;;;;9.35;7.53;;;23.10;71.90;;;;;;5182479;28;21330;-46
2021/09/28 01:24:54;;;;;;;9.65;7.95;;;23.00;71.90;;;;;;5180492;28;20053;-44
2021/09/28 01:27:26;;;;;;;8.65;7.28;;;23.00;71.90;;;;;;5166545;28;20635;-45
2021/09/28 01:29:59;;;;;;;8.48;7.57;;;23.10;71.90;;;;;;5151108;28;20056;-43
2021/09/28 01:32:31;;;;;;;8.98;7.47;;;23.00;71.80;;;;;;5185525;28;20053;-51
2021/09/28 01:35:05;;;;;;;9.65;7.57;;;23.00;71.80;;;;;;5181953;28;20378;-46
2021/09/28 01:37:40;;;;;;;9.80;7.13;;;23.00;71.70;;;;;;5181046;28;20052;-45
2021/09/28 01:40:13;;;;;;;11.30;7.28;;;23.00;71.80;;;;;;5182282;28;20387;-46
2021/09/28 01:42:45;;;;;;;10.83;8.60;;;23.00;71.80;;;;;;5183386;28;20050;-44
2021/09/28 01:45:17;;;;;;;10.63;7.68;;;23.00;71.80;;;;;;5179795;28;20061;-49
2021/09/28 01:47:50;;;;;;;10.18;7.57;;;23.00;71.80;;;;;;5183964;28;20336;-47
2021/09/28 01:50:22;;;;;;;10.95;7.70;;;23.00;71.80;;;;;;5183995;28;20045;-44
2021/09/28 01:52:55;;;;;;;11.82;8.23;;;23.00;71.90;;;;;;5185169;28;20414;-49
2021/09/28 01:55:27;;;;;;;11.30;8.47;;;23.00;71.90;;;;;;5150171;28;20394;-45
2021/09/28 01:58:00;;;;;;;8.60;7.38;;;23.00;71.90;;;;;;5186261;28;20303;-52
2021/09/28 02:00:32;;;;;;;11.38;7.80;;;23.00;71.90;;;;;;5177750;28;20059;-48
2021/09/28 02:03:06;;;;;;;11.20;7.53;;;23.00;72.00;;;;;;5167613;28;20526;-45
2021/09/28 02:05:39;;;;;;;;;;;23.00;72.00;;;;;;5180545;28;20060;-48
2021/09/28 02:08:12;;;;;;;12.60;8.02;;;22.90;72.00;;;;;;5182792;28;20259;-46
2021/09/28 02:10:44;;;;;;;10.53;8.20;;;22.90;72.10;;;;;;5182193;28;20046;-46
2021/09/28 02:13:17;;;;;;;8.68;7.43;;;22.90;72.10;;;;;;5186119;28;20037;-53
2021/09/28 02:15:49;;;;;;;8.35;7.35;;;22.90;72.10;;;;;;5188364;28;20060;-45
2021/09/28 02:18:22;;;;;;;9.25;7.70;;;23.00;72.20;;;;;;5189457;28;20049;-44
2021/09/28 02:20:54;;;;;;;9.00;7.72;;;22.90;72.20;;;;;;5188016;28;20053;-46
2021/09/28 02:23:27;;;;;;;10.77;7.28;;;22.90;72.10;;;;;;5189315;28;20064;-45
2021/09/28 02:25:59;;;;;;;10.18;7.70;;;22.90;72.20;;;;;;5170730;28;20041;-44
2021/09/28 02:28:31;;;;;;;8.82;7.60;;;22.90;72.10;;;;;;5185345;28;20049;-46
2021/09/28 02:31:04;;;;;;;10.25;7.82;;;22.90;72.20;;;;;;5179943;28;20050;-50
2021/09/28 02:33:36;;;;;;;9.98;7.85;;;22.90;72.10;;;;;;5187712;28;20061;-49
2021/09/28 02:36:09;;;;;;;9.90;6.85;;;22.90;72.00;;;;;;5183077;28;20045;-44
2021/09/28 02:38:42;;;;;;;10.40;7.68;;;22.90;72.00;;;;;;5183470;28;20512;-44
2021/09/28 02:41:15;;;;;;;11.32;7.45;;;22.90;72.00;;;;;;5186694;28;20244;-46
2021/09/28 02:43:47;;;;;;;9.27;7.65;;;22.90;72.00;;;;;;5181897;28;20046;-43
2021/09/28 02:46:19;;;;;;;10.38;7.85;;;22.90;72.00;;;;;;5162055;28;20054;-46
2021/09/28 02:48:52;;;;;;;10.50;7.38;;;22.90;72.00;;;;;;5170554;28;20050;-52
2021/09/28 02:51:24;;;;;;;13.02;7.70;;;22.90;72.20;;;;;;5175290;28;20056;-51
2021/09/28 02:53:57;;;;;;;11.23;7.63;;;22.90;72.50;;;;;;5188493;28;20096;-51
2021/09/28 02:56:29;;;;;;;11.18;7.32;;;22.90;72.60;;;;;;5160655;28;20634;-44
2021/09/28 02:59:01;;;;;;;10.45;7.10;;;22.90;72.60;;;;;;5184975;28;20057;-50
2021/09/28 03:01:34;;;;;;;11.00;6.97;;;22.90;72.70;;;;;;5166843;28;20056;-45
2021/09/28 03:04:07;;;;;;;8.90;7.35;;;22.90;72.80;;;;;;5181239;28;20049;-48
2021/09/28 03:06:39;;;;;;;10.52;7.57;;;22.90;72.80;;;;;;5183425;28;20072;-46
2021/09/28 03:09:12;;;;;;;10.38;7.20;;;23.00;72.80;;;;;;5182102;28;20404;-48
2021/09/28 03:11:44;;;;;;;9.43;6.93;;;23.00;72.90;;;;;;5172544;28;20509;-45
2021/09/28 03:14:17;;;;;;;10.67;7.57;;;23.00;72.90;;;;;;5170405;28;20057;-48
2021/09/28 03:16:51;;;;;;;11.07;7.32;;;23.00;73.00;;;;;;5176150;28;20303;-45
2021/09/28 03:19:24;;;;;;;10.18;7.10;;;23.00;73.00;;;;;;5179513;28;20052;-44
2021/09/28 03:21:57;;;;;;;9.65;7.43;;;23.00;73.10;;;;;;5180787;28;20049;-43
2021/09/28 03:24:29;;;;;;;9.57;7.60;;;23.00;73.10;;;;;;5177123;28;20050;-47
2021/09/28 03:27:02;;;;;;;13.85;7.00;;;23.00;73.00;;;;;;5179116;28;20418;-46
2021/09/28 03:29:35;;;;;;;8.37;6.60;;;23.00;73.10;;;;;;5178342;28;20061;-45
2021/09/28 03:32:07;;;;;;;13.00;7.90;;;23.00;73.10;;;;;;5179097;28;20033;-43
2021/09/28 03:34:40;;;;;;;9.18;7.28;;;23.00;73.10;;;;;;5184848;28;20045;-48
2021/09/28 03:37:12;;;;;;;12.55;7.60;;;23.00;73.10;;;;;;5156000;28;20289;-48
2021/09/28 03:39:45;;;;;;;9.30;7.22;;;23.00;73.30;;;;;;5175833;28;20059;-48
2021/09/28 03:42:17;;;;;;;8.75;6.57;;;23.00;73.20;;;;;;5173528;28;20060;-44
2021/09/28 03:44:50;;;;;;;9.93;6.82;;;23.00;73.20;;;;;;5182454;28;20049;-44
2021/09/28 03:47:22;;;;;;;14.25;7.35;;;23.00;73.20;;;;;;5182953;28;20045;-46
2021/09/28 03:49:54;;;;;;;11.10;7.20;;;23.00;73.30;;;;;;5182706;28;20050;-44
2021/09/28 03:52:27;;;;;;;16.50;7.30;;;23.00;73.30;;;;;;5179960;28;20225;-44
2021/09/28 03:55:00;;;;;;;10.17;7.20;;;23.00;73.40;;;;;;5181880;28;20300;-45
2021/09/28 03:57:32;;;;;;;9.35;6.80;;;23.00;73.30;;;;;;5162169;28;20053;-46
2021/09/28 04:00:05;;;;;;;12.25;7.70;;;23.00;73.30;;;;;;5183794;28;20405;-47
2021/09/28 04:02:38;;;;;;;8.15;6.28;;;23.00;73.30;;;;;;5183146;28;20042;-45
2021/09/28 04:05:11;;;;;;;12.57;6.63;;;23.00;73.50;;;;;;5181110;28;20046;-44
2021/09/28 04:07:44;;;;;;;8.63;6.20;;;23.00;73.50;;;;;;5183997;28;20084;-43
2021/09/28 04:10:16;;;;;;;8.85;6.85;;;23.00;73.50;;;;;;5183020;28;20045;-43
2021/09/28 04:12:48;;;;;;;15.50;6.50;;;23.00;73.50;;;;;;5183768;28;20437;-44
2021/09/28 04:15:24;;;;;;;11.60;6.47;;;23.00;73.50;;;;;;5186711;28;20520;-44
2021/09/28 04:17:56;;;;;;;12.35;6.75;;;23.00;73.50;;;;;;5176562;28;20057;-45
2021/09/28 04:20:29;;;;;;;9.20;6.30;;;23.00;73.50;;;;;;5170531;28;20045;-46
2021/09/28 04:23:02;;;;;;;11.63;6.90;;;23.00;73.60;;;;;;5166143;28;20054;-45
2021/09/28 04:25:34;;;;;;;;;;;23.00;73.50;;;;;;5168444;28;20375;-48
2021/09/28 04:28:08;;;;;;;8.82;6.43;;;22.90;73.50;;;;;;5171767;28;19924;-51
2021/09/28 04:30:40;;;;;;;9.90;6.88;;;23.00;73.70;;;;;;5175179;28;20052;-45
2021/09/28 04:33:13;;;;;;;8.80;6.40;;;23.00;73.70;;;;;;5173762;28;20045;-45
2021/09/28 04:35:45;;;;;;;10.13;7.20;;;23.00;73.60;;;;;;5176952;28;20084;-44
2021/09/28 04:38:18;;;;;;;10.23;6.45;;;23.00;73.70;;;;;;5163726;28;20394;-46
2021/09/28 04:40:50;;;;;;;8.77;6.45;;;23.00;73.70;;;;;;5155948;28;20058;-46
2021/09/28 04:43:23;;;;;;;11.82;6.65;;;23.00;73.80;;;;;;5175339;28;20053;-46
2021/09/28 04:45:55;;;;;;;9.10;6.55;;;23.00;73.80;;;;;;5176937;28;20422;-47
2021/09/28 04:48:28;;;;;;;9.38;6.78;;;23.00;73.80;;;;;;5176893;28;20056;-45
2021/09/28 04:51:01;;;;;;;10.87;7.03;;;23.00;73.90;;;;;;5169166;28;20048;-47
2021/09/28 04:53:33;;;;;;;7.97;6.28;;;23.00;73.90;;;;;;5164722;28;20307;-47
2021/09/28 04:56:06;;;;;;;7.45;6.22;;;23.00;73.90;;;;;;5175860;28;20060;-49
2021/09/28 04:58:38;;;;;;;8.80;6.70;;;23.00;73.90;;;;;;5153159;28;20046;-48
2021/09/28 05:01:11;;;;;;;14.57;6.78;;;23.00;73.90;;;;;;5173720;28;20052;-49
2021/09/28 05:03:43;;;;;;;13.27;6.90;;;23.00;73.90;;;;;;5159499;28;20068;-49
2021/09/28 05:06:16;;;;;;;13.85;7.05;;;23.00;74.10;;;;;;5165016;28;20627;-46
2021/09/28 05:08:48;;;;;;;11.95;7.35;;;23.00;74.30;;;;;;5147160;28;20049;-50
2021/09/28 05:11:20;;;;;;;19.30;6.35;;;23.00;74.20;;;;;;5158293;28;20041;-53
2021/09/28 05:13:53;;;;;;;24.10;7.60;;;23.00;74.30;;;;;;5161679;28;20050;-47
2021/09/28 05:16:25;;;;;;;22.52;7.55;;;23.00;74.50;;;;;;5167066;28;21568;-46
2021/09/28 05:18:58;;;;;;;33.83;7.47;;;23.00;74.30;;;;;;5164941;28;20377;-46
2021/09/28 05:21:31;;;;;;;20.67;7.78;;;23.00;74.20;;;;;;5162446;28;20064;-48
2021/09/28 05:24:03;;;;;;;18.83;8.52;;;23.00;74.20;;;;;;5168283;28;20487;-45
2021/09/28 05:26:36;;;;;;;17.30;9.07;;;23.00;73.70;;;;;;5179219;28;20045;-47
2021/09/28 05:29:08;;;;;;;21.45;9.48;;;23.00;73.40;;;;;;5148332;28;20129;-51
2021/09/28 05:31:41;;;;;;;19.60;8.52;;;22.90;73.20;;;;;;5172650;28;20045;-47
2021/09/28 05:34:15;;;;;;;17.98;8.88;;;22.90;73.00;;;;;;5165261;28;20033;-44
2021/09/28 05:36:48;;;;;;;16.50;9.10;;;22.90;72.90;;;;;;5179474;28;20057;-48
2021/09/28 05:39:20;;;;;;;16.25;8.70;;;22.90;72.80;;;;;;5184491;28;20045;-47
2021/09/28 05:41:53;;;;;;;11.13;7.90;;;22.90;72.80;;;;;;5178003;28;20064;-46
2021/09/28 05:44:25;;;;;;;14.38;9.00;;;22.90;72.60;;;;;;5174525;28;20052;-47
2021/09/28 05:46:57;;;;;;;18.20;8.75;;;22.80;72.50;;;;;;5179220;28;20041;-45
2021/09/28 05:49:32;;;;;;;12.02;7.88;;;22.80;72.40;;;;;;5183052;28;20049;-48
2021/09/28 05:52:08;;;;;;;16.50;8.50;;;22.80;72.40;;;;;;5159581;28;20522;-44
2021/09/28 05:54:47;;;;;;;13.55;8.98;;;22.80;72.40;;;;;;5182636;28;20048;-52
2021/09/28 05:57:21;;;;;;;14.82;8.63;;;22.80;72.30;;;;;;5180556;28;20045;-52
2021/09/28 05:59:54;;;;;;;12.05;7.75;;;22.80;72.30;;;;;;5176924;28;20052;-53
2021/09/28 06:02:26;;;;;;;13.77;8.68;;;22.70;72.20;;;;;;5177244;28;20041;-48
2021/09/28 06:04:59;;;;;;;13.75;8.35;;;22.80;72.20;;;;;;5155316;28;20068;-46
2021/09/28 06:07:32;;;;;;;12.07;8.38;;;22.70;72.10;;;;;;5172026;28;20529;-51
2021/09/28 06:10:04;;;;;;;12.00;8.98;;;22.70;72.00;;;;;;5170153;28;20045;-53
2021/09/28 06:12:37;;;;;;;10.43;7.93;;;22.70;72.00;;;;;;5171094;28;20509;-48
2021/09/28 06:15:10;;;;;;;13.88;8.88;;;22.60;72.00;;;;;;5168620;28;20049;-48
2021/09/28 06:17:42;;;;;;;13.23;8.23;;;22.60;72.00;;;;;;5182956;28;20053;-48
2021/09/28 06:20:15;;;;;;;13.15;7.60;;;22.60;72.20;;;;;;5159592;28;20058;-45
2021/09/28 06:22:47;;;;;;;12.18;8.27;;;22.60;72.30;;;;;;5185145;28;20409;-52
2021/09/28 06:25:20;;;;;;;12.77;7.25;;;22.50;72.30;;;;;;5177217;28;20052;-47
2021/09/28 06:27:52;;;;;;;12.93;6.32;;;22.50;73.10;;;;;;5178927;28;20046;-47
2021/09/28 06:30:25;;;;;;;16.42;6.38;;;22.50;72.60;;;;;;5185596;28;20057;-45
2021/09/28 06:32:57;;;;;;;10.43;6.47;;;22.60;72.80;;;;;;5172628;28;20747;-51
2021/09/28 06:35:30;;;;;;;14.02;6.10;;;22.50;72.90;;;;;;5172040;28;20050;-46
2021/09/28 06:38:06;;;;;;;10.77;6.47;;;22.60;73.00;;;;;;5188275;28;20057;-44
2021/09/28 06:40:38;;;;;;;8.45;5.57;;;22.60;73.00;;;;;;5165690;28;20053;-50
2021/09/28 06:43:11;;;;;;;9.77;5.72;;;22.70;73.10;;;;;;5175162;28;20525;-47
2021/09/28 06:45:43;;;;;;;9.80;5.45;;;22.60;73.00;;;;;;5170279;28;20604;-45
2021/09/28 06:48:18;;;;;;;9.30;5.60;;;22.60;73.00;;;;;;5189964;28;20045;-48
2021/09/28 06:50:50;;;;;;;14.60;6.03;;;22.60;73.10;;;;;;5182351;28;20049;-46
2021/09/28 06:53:23;;;;;;;7.95;5.90;;;22.70;73.10;;;;;;5195894;28;20041;-45
2021/09/28 06:55:55;;;;;;;8.30;5.93;;;22.70;73.10;;;;;;5192222;28;20082;-44
2021/09/28 06:58:28;;;;;;;10.88;6.50;;;22.70;73.10;;;;;;5191478;28;20049;-48
2021/09/28 07:01:00;;;;;;;10.38;6.00;;;22.70;73.10;;;;;;5190843;28;20053;-48
2021/09/28 07:03:34;;;;;;;7.70;5.93;;;22.70;73.10;;;;;;5197252;28;20064;-47
2021/09/28 07:06:07;;;;;;;8.45;5.30;;;22.70;73.10;;;;;;5198361;28;20064;-49
2021/09/28 07:08:39;;;;;;;8.37;5.37;;;22.70;73.10;;;;;;5194519;28;20045;-47
2021/09/28 07:11:12;;;;;;;14.23;5.15;;;22.70;73.10;;;;;;5180241;28;20429;-45
2021/09/28 07:13:45;;;;;;;11.52;6.45;;;22.70;73.10;;;;;;5197887;28;20034;-47
2021/09/28 07:16:19;;;;;;;10.70;5.50;;;22.70;73.10;;;;;;5193948;28;20601;-46
2021/09/28 07:18:52;;;;;;;7.50;5.57;;;22.70;73.10;;;;;;5197923;28;20073;-46
2021/09/28 07:21:25;;;;;;;;;;;22.70;73.10;;;;;;5190435;28;20045;-52
2021/09/28 07:23:57;;;;;;;10.18;5.72;;;22.70;73.20;;;;;;5184773;28;19947;-46
2021/09/28 07:26:30;;;;;;;10.47;5.93;;;22.70;73.30;;;;;;5190431;28;20049;-47
2021/09/28 07:29:02;;;;;;;7.53;5.20;;;22.70;73.30;;;;;;5189507;28;20057;-45
2021/09/28 07:31:36;;;;;;;10.80;5.43;;;22.70;73.20;;;;;;5183977;28;20037;-44
2021/09/28 07:34:09;;;;;;;8.38;4.93;;;22.70;73.20;;;;;;5181882;28;20749;-46
2021/09/28 07:36:41;;;;;;;6.10;4.93;;;22.70;73.20;;;;;;5196513;28;20041;-45
2021/09/28 07:39:14;;;;;;;9.25;5.63;;;22.70;73.20;;;;;;5190923;28;20935;-46
2021/09/28 07:41:48;;;;;;;9.68;5.53;;;22.70;73.20;;;;;;5198076;28;20041;-44
2021/09/28 07:44:21;;;;;;;7.53;5.30;;;22.70;73.20;;;;;;5187643;28;20053;-46
2021/09/28 07:46:54;;;;;;;6.32;5.28;;;22.70;73.20;;;;;;5193399;28;20049;-44
2021/09/28 07:49:27;;;;;;;8.68;5.15;;;22.80;73.20;;;;;;5184360;28;20046;-44
2021/09/28 07:51:59;;;;;;;7.00;5.13;;;22.70;73.20;;;;;;5187135;28;20061;-45
2021/09/28 07:54:34;;;;;;;7.18;4.93;;;22.70;73.20;;;;;;5187353;28;20307;-45
2021/09/28 07:57:08;;;;;;;10.27;5.25;;;22.70;73.20;;;;;;5185368;28;20045;-49
2021/09/28 07:59:40;;;;;;;9.23;4.95;;;22.70;73.20;;;;;;5188180;28;20052;-51
2021/09/28 08:02:13;;;;;;;10.23;5.43;;;22.70;73.20;;;;;;5189707;28;20056;-49
2021/09/28 08:04:47;;;;;;;7.63;5.00;;;22.80;73.20;;;;;;5189732;28;20414;-48
2021/09/28 08:07:19;;;;;;;5.40;4.28;;;22.70;73.20;;;;;;5191279;28;20049;-50
2021/09/28 08:09:51;;;;;;;7.28;4.80;;;22.80;73.20;;;;;;5188436;28;20054;-45
2021/09/28 08:12:24;;;;;;;6.65;4.40;;;22.80;73.20;;;;;;5190472;28;20568;-49
2021/09/28 08:14:56;;;;;;;6.15;4.95;;;22.80;73.20;;;;;;5192288;28;20495;-44
2021/09/28 08:17:29;;;;;;;7.93;4.73;;;22.80;73.20;;;;;;5195813;28;20041;-51
2021/09/28 08:20:03;;;;;;;7.88;4.65;;;22.80;73.20;;;;;;5194024;28;20046;-50
2021/09/28 08:22:38;;;;;;;7.25;4.88;;;22.80;73.20;;;;;;5194948;28;20057;-48
2021/09/28 08:25:15;;;;;;;6.22;4.30;;;22.80;73.30;;;;;;5193660;28;20042;-48
2021/09/28 08:30:38;;;;;;;8.57;4.78;;;22.80;73.20;;;;;;5193874;28;20052;-46
2021/09/28 08:33:11;;;;;;;6.25;4.32;;;22.80;73.20;;;;;;5194525;28;20052;-46
2021/09/28 08:35:43;;;;;;;4.55;4.03;;;22.80;73.20;;;;;;5195838;28;20057;-45
2021/09/28 08:38:16;;;;;;;6.65;4.28;;;22.80;73.20;;;;;;5194018;28;20046;-47
2021/09/28 08:40:49;;;;;;;6.33;4.70;;;22.80;73.20;;;;;;5196508;28;20057;-44
2021/09/28 08:43:21;;;;;;;8.13;4.88;;;22.80;73.20;;;;;;5196727;28;20303;-45
2021/09/28 08:45:55;;;;;;;6.18;4.60;;;22.70;73.20;;;;;;5175778;28;20060;-47
2021/09/28 08:48:28;;;;;;;6.20;4.53;;;22.80;73.20;;;;;;5197334;28;20045;-44
2021/09/28 08:51:00;;;;;;;7.40;4.57;;;22.80;73.20;;;;;;5195645;28;20045;-49
2021/09/28 08:53:32;;;;;;;6.28;4.22;;;22.80;73.20;;;;;;5186587;28;20759;-47
2021/09/28 08:56:06;;;;;;;5.57;4.22;;;22.80;73.20;;;;;;5189852;28;20490;-45
2021/09/28 08:59:14;;;;;;;7.50;4.40;;;22.80;73.20;;;;;;5197824;28;20045;-44
2021/09/28 09:01:58;;;;;;;6.35;4.22;;;22.80;73.10;;;;;;5166934;28;20592;-47
2021/09/28 09:04:31;;;;;;;5.22;3.83;;;22.80;73.20;;;;;;5180813;28;20045;-54
2021/09/28 09:07:26;;;;;;;10.38;4.68;;;22.80;73.20;;;;;;5162474;28;20049;-51
2021/09/28 09:09:58;;;;;;;7.60;3.97;;;22.80;73.20;;;;;;5161447;28;20057;-53
2021/09/28 09:12:34;;;;;;;6.40;3.97;;;22.80;73.20;;;;;;5183633;28;20045;-49
2021/09/28 09:15:18;;;;;;;7.70;4.15;;;22.80;73.20;;;;;;5178977;28;20057;-47
2021/09/28 09:17:52;;;;;;;6.35;4.43;;;22.80;73.10;;;;;;5179821;28;20065;-48
2021/09/28 09:20:25;;;;;;;9.65;4.40;;;22.80;73.20;;;;;;5165155;28;20052;-47
2021/09/28 09:23:12;;;;;;;6.07;3.88;;;22.80;73.20;;;;;;5181135;28;20045;-51
2021/09/28 09:25:46;;;;;;;7.97;4.28;;;22.80;73.10;;;;;;5167308;28;20473;-48
2021/09/28 09:28:18;;;;;;;6.63;4.15;;;22.80;73.20;;;;;;5175892;28;20049;-45
2021/09/28 09:30:52;;;;;;;5.17;3.90;;;22.80;73.10;;;;;;5170688;28;20497;-44
2021/09/28 09:33:25;;;;;;;5.07;3.97;;;22.80;73.10;;;;;;5172619;28;20308;-47
2021/09/28 09:36:01;;;;;;;5.63;4.00;;;22.80;73.10;;;;;;4480828;28;10000680;-52
2021/09/28 09:38:44;;;;;;;7.90;3.72;;;22.80;73.10;;;;;;5175135;28;20470;-51
2021/09/28 09:41:17;;;;;;;6.15;3.95;;;22.80;73.00;;;;;;5178747;28;20909;-46
2021/09/28 09:43:59;;;;;;;5.65;3.70;;;22.80;73.00;;;;;;5179203;28;20049;-52
2021/09/28 09:46:52;;;;;;;6.10;3.92;;;22.80;73.10;;;;;;5175843;28;20057;-51
2021/09/28 09:49:31;;;;;;;6.40;4.22;;;22.80;73.80;;;;;;5177598;28;20042;-48
2021/09/28 09:52:09;;;;;;;5.25;3.78;;;22.80;73.20;;;;;;5165242;28;20053;-44
2021/09/28 09:54:43;;;;;;;7.00;3.60;;;22.80;73.30;;;;;;5182729;28;20136;-48
2021/09/28 09:57:16;;;;;;;8.95;4.15;;;22.80;73.40;;;;;;5180422;28;20050;-53
2021/09/28 09:59:52;;;;;;;8.15;3.92;;;22.80;73.40;;;;;;5183195;28;20191;-45
2021/09/28 10:02:26;;;;;;;5.72;4.03;;;22.80;73.30;;;;;;5180558;28;20045;-47
2021/09/28 10:05:02;;;;;;;4.85;3.58;;;22.80;73.40;;;;;;5191522;28;20049;-47
2021/09/28 10:07:34;;;;;;;6.65;3.65;;;22.80;73.40;;;;;;5185029;28;20050;-49
2021/09/28 10:10:09;;;;;;;5.43;3.47;;;22.90;73.40;;;;;;5175858;28;20045;-53
2021/09/28 10:12:41;;;;;;;6.25;3.85;;;22.90;73.40;;;;;;5175524;28;20037;-47
2021/09/28 10:15:16;;;;;;;5.03;3.88;;;22.90;73.50;;;;;;5173386;28;20045;-46
2021/09/28 10:17:49;;;;;;;5.35;3.88;;;22.90;73.40;;;;;;5185984;28;20037;-47
2021/09/28 10:20:21;;;;;;;5.93;3.85;;;22.90;73.30;;;;;;5187657;28;20509;-47
2021/09/28 10:22:55;;;;;;;4.82;3.88;;;22.90;73.30;;;;;;5178962;28;20386;-48
2021/09/28 10:25:35;;;;;;;5.80;3.53;;;22.90;74.00;;;;;;5175149;28;20058;-45
2021/09/28 10:28:07;;;;;;;6.15;3.67;;;22.90;73.20;;;;;;5181151;28;20033;-51
2021/09/28 10:30:42;;;;;;;4.53;3.35;;;22.90;73.20;;;;;;5181018;28;20508;-48
2021/09/28 10:33:27;;;;;;;3.95;3.20;;;22.90;73.20;;;;;;5183278;28;20049;-50
2021/09/28 10:36:18;;;;;;;6.05;3.13;;;23.00;73.10;;;;;;5177279;28;20401;-48
2021/09/28 10:39:01;;;;;;;5.10;3.40;;;23.00;73.20;;;;;;5179300;28;20491;-50
2021/09/28 10:41:42;;;;;;;5.88;3.17;;;23.00;73.10;;;;;;5178384;28;20101;-44
2021/09/28 10:44:29;;;;;;;4.68;3.03;;;23.00;73.10;;;;;;5188354;28;20057;-47
2021/09/28 10:47:04;;;;;;;5.85;3.63;;;23.10;73.10;;;;;;5189089;28;20514;-50
2021/09/28 10:49:37;;;;;;;7.88;3.22;;;23.10;73.10;;;;;;5181236;28;20045;-49
2021/09/28 10:52:22;;;;;;;5.07;3.17;;;23.10;73.10;;;;;;5163801;28;20053;-44
2021/09/28 10:55:06;;;;;;;4.72;3.55;;;23.10;73.70;;;;;;5190485;28;20049;-53
2021/09/28 10:57:54;;;;;;;6.93;3.30;;;23.10;73.00;;;;;;5193142;28;20041;-47
2021/09/28 11:00:30;;;;;;;6.45;3.63;;;23.10;73.00;;;;;;5193305;28;20049;-50
2021/09/28 11:03:02;;;;;;;4.15;3.33;;;23.10;73.00;;;;;;5191367;28;20056;-48
2021/09/28 11:05:39;;;;;;;5.47;3.43;;;23.10;73.00;;;;;;5204764;28;20056;-49
2021/09/28 11:08:12;;;;;;;4.88;3.00;;;23.10;73.00;;;;;;5188770;28;20060;-50
2021/09/28 11:10:56;;;;;;;7.20;3.65;;;23.10;73.00;;;;;;5191785;28;20553;-47
2021/09/28 11:13:36;;;;;;;5.30;3.47;;;23.10;72.90;;;;;;5173186;28;20806;-47
2021/09/28 11:16:10;;;;;;;11.82;3.70;;;23.10;73.00;;;;;;5175696;28;20045;-48
2021/09/28 11:18:58;;;;;;;3.50;2.72;;;23.10;73.70;;;;;;5180230;28;20060;-46
2021/09/28 11:21:31;;;;;;;3.65;2.97;;;23.10;72.90;;;;;;5179232;28;20465;-53
2021/09/28 11:24:04;;;;;;;4.65;3.40;;;23.10;72.90;;;;;;5185110;28;20053;-51
2021/09/28 11:26:41;;;;;;;6.93;3.28;;;23.10;72.90;;;;;;5180731;28;20052;-50
2021/09/28 11:29:22;;;;;;;3.83;2.97;;;23.10;72.90;;;;;;5181363;28;20430;-46
2021/09/28 11:31:55;;;;;;;3.67;2.50;;;23.10;73.50;;;;;;5185278;28;20580;-46
2021/09/28 11:34:30;;;;;;;7.05;3.05;;;23.10;72.90;;;;;;5180501;28;20444;-48
2021/09/28 11:37:23;;;;;;;4.28;3.13;;;23.10;72.90;;;;;;5187688;28;20485;-47
2021/09/28 11:39:56;;;;;;;4.18;2.90;;;23.10;72.90;;;;;;5185276;28;20049;-52
2021/09/28 11:42:32;;;;;;;6.80;2.67;;;23.10;72.90;;;;;;5185322;28;20413;-46
2021/09/28 11:45:04;;;;;;;7.93;2.90;;;23.10;73.00;;;;;;5186679;28;20045;-46
2021/09/28 11:47:41;;;;;;;6.57;2.78;;;23.10;73.00;;;;;;5181403;28;20422;-47
2021/09/28 11:50:13;;;;;;;4.22;2.42;;;23.10;73.20;;;;;;5187245;28;20045;-50
2021/09/28 11:52:46;;;;;;;4.50;3.00;;;23.10;73.30;;;;;;5187798;28;20049;-46
2021/09/28 11:55:24;;;;;;;6.70;3.30;;;23.10;73.40;;;;;;5190868;28;20132;-44
2021/09/28 11:57:57;;;;;;;6.13;3.10;;;23.20;73.50;;;;;;5189349;28;20045;-50
2021/09/28 12:00:30;;;;;;;8.20;3.23;;;23.20;73.50;;;;;;5190774;28;20384;-44
2021/09/28 12:03:06;;;;;;;4.15;3.05;;;23.20;73.40;;;;;;5186017;28;20064;-46
2021/09/28 12:06:03;;;;;;;8.45;3.00;;;23.30;73.40;;;;;;5189096;28;20056;-44
2021/09/28 12:08:36;;;;;;;5.50;2.60;;;23.30;73.40;;;;;;5183395;28;20516;-46
2021/09/28 12:11:08;;;;;;;6.30;2.92;;;23.40;73.50;;;;;;5185123;28;20088;-48
2021/09/28 12:13:48;;;;;;;4.15;2.80;;;23.40;73.50;;;;;;5175559;28;20033;-53
2021/09/28 12:16:22;;;;;;;5.57;2.90;;;23.50;73.50;;;;;;5164123;28;20421;-48
2021/09/28 12:19:05;;;;;;;4.18;2.58;;;23.60;73.40;;;;;;5173173;28;20053;-50
2021/09/28 12:21:37;;;;;;;5.30;2.90;;;23.60;73.20;;;;;;5168430;28;20062;-50
2021/09/28 12:24:16;;;;;;;4.70;3.00;;;23.70;73.20;;;;;;5167830;28;20048;-50
2021/09/28 12:27:06;;;;;;;6.88;2.83;;;23.80;73.00;;;;;;5160459;28;20042;-50
2021/09/28 12:29:47;;;;;;;4.93;2.72;;;23.90;72.80;;;;;;5168451;28;20041;-53
2021/09/28 12:32:30;;;;;;;7.90;2.90;;;24.00;72.60;;;;;;5170595;28;20400;-51
2021/09/28 12:35:12;;;;;;;6.95;2.83;;;24.10;72.40;;;;;;5167980;28;20502;-53
2021/09/28 12:37:56;;;;;;;4.35;2.45;;;24.10;72.20;;;;;;5163526;28;20053;-49
2021/09/28 12:40:44;;;;;;;7.98;3.08;;;24.20;72.00;;;;;;4683777;28;10000689;-57
2021/09/28 12:43:25;;;;;;;10.45;3.30;;;24.20;71.80;;;;;;4838342;28;10000475;-47
2021/09/28 12:46:02;;;;;;;9.18;2.80;;;24.30;71.60;;;;;;5163424;28;20045;-54
2021/09/28 12:48:40;;;;;;;9.98;2.80;;;24.40;71.60;;;;;;5164276;28;20056;-52
2021/09/28 12:51:19;;;;;;;6.40;2.60;;;24.40;71.40;;;;;;5165965;28;20048;-48
2021/09/28 12:53:51;;;;;;;11.40;3.10;;;24.40;71.20;;;;;;5157762;28;20045;-54
2021/09/28 12:56:24;;;;;;;16.07;3.13;;;24.50;71.10;;;;;;5162864;28;20618;-53
2021/09/28 12:58:56;;;;;;;11.40;2.85;;;24.50;70.90;;;;;;5152353;28;20935;-51
2021/09/28 13:01:29;;;;;;;7.53;2.83;;;24.60;70.80;;;;;;5126801;28;21167;-49
2021/09/28 13:04:02;;;;;;;8.00;2.83;;;24.60;70.60;;;;;;5153122;28;20041;-53
2021/09/28 13:06:38;;;;;;;10.63;3.00;;;24.60;70.50;;;;;;5156598;28;20038;-53
2021/09/28 13:09:17;;;;;;;7.18;2.40;;;24.70;70.50;;;;;;5150907;28;20056;-54
2021/09/28 13:11:50;;;;;;;11.10;3.03;;;24.70;70.30;;;;;;5157310;28;20520;-52
2021/09/28 13:14:24;;;;;;;7.82;2.83;;;24.70;70.20;;;;;;5162729;28;20053;-50
2021/09/28 13:16:58;;;;;;;10.15;2.58;;;24.70;70.10;;;;;;5173441;28;20053;-50
2021/09/28 13:19:31;;;;;;;4.60;2.42;;;24.80;70.10;;;;;;5158898;28;20572;-52
2021/09/28 13:22:04;;;;;;;6.88;2.55;;;24.80;70.10;;;;;;5156796;28;20069;-48